sensor_id;sensor_type;location;lat;lon;timestamp;P1;durP1;ratioP1;P2;durP2;ratioP2
51358;SDS011;37448;51.588;7.248;2023-11-21T00:00:05;12.88;;;7.50;;
51358;SDS011;37448;51.588;7.248;2023-11-21T00:02:13;12.65;;;7.25;;
51358;SDS011;37448;51.588;7.248;2023-11-21T00:04:13;11.90;;;6.85;;
51358;SDS011;37448;51.588;7.248;2023-11-21T00:06:15;12.35;;;6.68;;
51358;SDS011;37448;51.588;7.248;2023-11-21T00:08:16;10.43;;;7.40;;
51358;SDS011;37448;51.588;7.248;2023-11-21T00:10:16;16.33;;;8.20;;
51358;SDS011;37448;51.588;7.248;2023-11-21T00:12:17;9.95;;;6.90;;
51358;SDS011;37448;51.588;7.248;2023-11-21T00:14:18;11.20;;;6.78;;
51358;SDS011;37448;51.588;7.248;2023-11-21T00:16:18;12.32;;;8.27;;
51358;SDS011;37448;51.588;7.248;2023-11-21T00:18:18;16.83;;;6.63;;
51358;SDS011;37448;51.588;7.248;2023-11-21T00:20:20;16.00;;;7.07;;
51358;SDS011;37448;51.588;7.248;2023-11-21T00:22:21;11.65;;;7.18;;
51358;SDS011;37448;51.588;7.248;2023-11-21T00:24:22;11.73;;;7.00;;
51358;SDS011;37448;51.588;7.248;2023-11-21T00:26:22;13.40;;;7.90;;
51358;SDS011;37448;51.588;7.248;2023-11-21T00:28:33;11.45;;;7.40;;
51358;SDS011;37448;51.588;7.248;2023-11-21T00:30:34;14.90;;;6.97;;
51358;SDS011;37448;51.588;7.248;2023-11-21T00:32:40;15.38;;;7.30;;
51358;SDS011;37448;51.588;7.248;2023-11-21T00:34:41;15.00;;;7.78;;
51358;SDS011;37448;51.588;7.248;2023-11-21T00:36:42;14.35;;;8.02;;
51358;SDS011;37448;51.588;7.248;2023-11-21T00:38:42;15.32;;;8.25;;
51358;SDS011;37448;51.588;7.248;2023-11-21T00:40:43;14.45;;;8.23;;
51358;SDS011;37448;51.588;7.248;2023-11-21T00:42:43;12.77;;;7.28;;
51358;SDS011;37448;51.588;7.248;2023-11-21T00:44:44;16.65;;;8.10;;
51358;SDS011;37448;51.588;7.248;2023-11-21T00:46:44;16.13;;;7.72;;
51358;SDS011;37448;51.588;7.248;2023-11-21T00:48:45;16.50;;;8.18;;
51358;SDS011;37448;51.588;7.248;2023-11-21T00:50:45;13.10;;;7.78;;
51358;SDS011;37448;51.588;7.248;2023-11-21T00:52:45;16.67;;;8.70;;
51358;SDS011;37448;51.588;7.248;2023-11-21T00:54:46;12.55;;;7.13;;
51358;SDS011;37448;51.588;7.248;2023-11-21T00:56:48;13.50;;;8.00;;
51358;SDS011;37448;51.588;7.248;2023-11-21T00:58:49;12.65;;;7.20;;
51358;SDS011;37448;51.588;7.248;2023-11-21T01:00:51;13.98;;;7.93;;
51358;SDS011;37448;51.588;7.248;2023-11-21T01:02:51;16.52;;;7.55;;
51358;SDS011;37448;51.588;7.248;2023-11-21T01:04:51;12.93;;;7.38;;
51358;SDS011;37448;51.588;7.248;2023-11-21T01:06:52;12.02;;;7.07;;
51358;SDS011;37448;51.588;7.248;2023-11-21T01:08:52;14.85;;;7.88;;
51358;SDS011;37448;51.588;7.248;2023-11-21T01:10:53;13.50;;;7.80;;
51358;SDS011;37448;51.588;7.248;2023-11-21T01:12:53;11.82;;;7.13;;
51358;SDS011;37448;51.588;7.248;2023-11-21T01:14:54;13.38;;;7.47;;
51358;SDS011;37448;51.588;7.248;2023-11-21T01:16:54;19.88;;;7.50;;
51358;SDS011;37448;51.588;7.248;2023-11-21T01:18:55;13.82;;;7.95;;
51358;SDS011;37448;51.588;7.248;2023-11-21T01:20:55;14.05;;;8.75;;
51358;SDS011;37448;51.588;7.248;2023-11-21T01:22:56;12.48;;;7.30;;
51358;SDS011;37448;51.588;7.248;2023-11-21T01:24:56;16.35;;;8.57;;
51358;SDS011;37448;51.588;7.248;2023-11-21T01:26:58;16.52;;;7.93;;
51358;SDS011;37448;51.588;7.248;2023-11-21T01:28:58;13.95;;;7.60;;
51358;SDS011;37448;51.588;7.248;2023-11-21T01:30:59;15.32;;;7.88;;
51358;SDS011;37448;51.588;7.248;2023-11-21T01:32:59;12.30;;;7.40;;
51358;SDS011;37448;51.588;7.248;2023-11-21T01:35:00;14.60;;;7.95;;
51358;SDS011;37448;51.588;7.248;2023-11-21T01:37:00;13.48;;;7.57;;
51358;SDS011;37448;51.588;7.248;2023-11-21T01:39:05;12.73;;;7.05;;
51358;SDS011;37448;51.588;7.248;2023-11-21T01:41:11;12.13;;;6.97;;
51358;SDS011;37448;51.588;7.248;2023-11-21T01:43:14;17.60;;;8.32;;
51358;SDS011;37448;51.588;7.248;2023-11-21T01:45:14;14.10;;;7.25;;
51358;SDS011;37448;51.588;7.248;2023-11-21T01:47:15;15.45;;;6.93;;
51358;SDS011;37448;51.588;7.248;2023-11-21T01:49:17;13.02;;;8.43;;
51358;SDS011;37448;51.588;7.248;2023-11-21T01:51:18;11.02;;;7.03;;
51358;SDS011;37448;51.588;7.248;2023-11-21T01:53:18;16.83;;;7.00;;
51358;SDS011;37448;51.588;7.248;2023-11-21T01:55:20;15.07;;;7.70;;
51358;SDS011;37448;51.588;7.248;2023-11-21T01:57:21;12.93;;;7.18;;
51358;SDS011;37448;51.588;7.248;2023-11-21T01:59:21;15.50;;;7.10;;
51358;SDS011;37448;51.588;7.248;2023-11-21T02:01:23;14.77;;;8.07;;
51358;SDS011;37448;51.588;7.248;2023-11-21T02:03:23;14.82;;;6.82;;
51358;SDS011;37448;51.588;7.248;2023-11-21T02:05:23;13.27;;;7.13;;
51358;SDS011;37448;51.588;7.248;2023-11-21T02:07:26;11.63;;;7.30;;
51358;SDS011;37448;51.588;7.248;2023-11-21T02:09:26;11.02;;;6.57;;
51358;SDS011;37448;51.588;7.248;2023-11-21T02:11:27;11.15;;;6.35;;
51358;SDS011;37448;51.588;7.248;2023-11-21T02:13:28;13.50;;;6.95;;
51358;SDS011;37448;51.588;7.248;2023-11-21T02:15:28;12.45;;;7.07;;
51358;SDS011;37448;51.588;7.248;2023-11-21T02:17:29;11.95;;;7.43;;
51358;SDS011;37448;51.588;7.248;2023-11-21T02:19:31;15.32;;;8.00;;
51358;SDS011;37448;51.588;7.248;2023-11-21T02:21:32;13.30;;;7.57;;
51358;SDS011;37448;51.588;7.248;2023-11-21T02:23:32;15.93;;;8.27;;
51358;SDS011;37448;51.588;7.248;2023-11-21T02:25:33;12.25;;;7.32;;
51358;SDS011;37448;51.588;7.248;2023-11-21T02:27:34;13.63;;;8.50;;
51358;SDS011;37448;51.588;7.248;2023-11-21T02:29:34;15.38;;;8.27;;
51358;SDS011;37448;51.588;7.248;2023-11-21T02:31:35;15.02;;;9.05;;
51358;SDS011;37448;51.588;7.248;2023-11-21T02:33:35;16.42;;;7.72;;
51358;SDS011;37448;51.588;7.248;2023-11-21T02:35:36;13.27;;;9.00;;
51358;SDS011;37448;51.588;7.248;2023-11-21T02:37:38;11.60;;;7.00;;
51358;SDS011;37448;51.588;7.248;2023-11-21T02:39:38;14.70;;;8.05;;
51358;SDS011;37448;51.588;7.248;2023-11-21T02:41:39;14.02;;;7.57;;
51358;SDS011;37448;51.588;7.248;2023-11-21T02:43:40;17.73;;;8.30;;
51358;SDS011;37448;51.588;7.248;2023-11-21T02:45:40;14.93;;;7.55;;
51358;SDS011;37448;51.588;7.248;2023-11-21T02:47:42;12.45;;;7.35;;
51358;SDS011;37448;51.588;7.248;2023-11-21T02:49:43;14.13;;;7.35;;
51358;SDS011;37448;51.588;7.248;2023-11-21T02:51:44;10.95;;;7.45;;
51358;SDS011;37448;51.588;7.248;2023-11-21T02:53:44;15.55;;;7.97;;
51358;SDS011;37448;51.588;7.248;2023-11-21T02:55:46;14.50;;;7.60;;
51358;SDS011;37448;51.588;7.248;2023-11-21T02:57:47;15.82;;;7.78;;
51358;SDS011;37448;51.588;7.248;2023-11-21T02:59:47;14.68;;;7.07;;
51358;SDS011;37448;51.588;7.248;2023-11-21T03:01:47;11.80;;;7.45;;
51358;SDS011;37448;51.588;7.248;2023-11-21T03:03:49;14.05;;;6.88;;
51358;SDS011;37448;51.588;7.248;2023-11-21T03:05:51;12.70;;;7.50;;
51358;SDS011;37448;51.588;7.248;2023-11-21T03:07:51;14.32;;;7.10;;
51358;SDS011;37448;51.588;7.248;2023-11-21T03:09:52;12.18;;;6.82;;
51358;SDS011;37448;51.588;7.248;2023-11-21T03:11:55;17.20;;;8.18;;
51358;SDS011;37448;51.588;7.248;2023-11-21T03:13:55;15.38;;;7.68;;
51358;SDS011;37448;51.588;7.248;2023-11-21T03:15:56;15.63;;;7.85;;
51358;SDS011;37448;51.588;7.248;2023-11-21T03:17:56;13.63;;;7.43;;
51358;SDS011;37448;51.588;7.248;2023-11-21T03:19:57;14.63;;;7.40;;
51358;SDS011;37448;51.588;7.248;2023-11-21T03:21:58;14.50;;;7.80;;
51358;SDS011;37448;51.588;7.248;2023-11-21T03:23:59;16.77;;;7.32;;
51358;SDS011;37448;51.588;7.248;2023-11-21T03:26:00;14.82;;;6.97;;
51358;SDS011;37448;51.588;7.248;2023-11-21T03:28:00;11.68;;;7.70;;
51358;SDS011;37448;51.588;7.248;2023-11-21T03:30:00;10.38;;;6.53;;
51358;SDS011;37448;51.588;7.248;2023-11-21T03:32:03;12.27;;;7.10;;
51358;SDS011;37448;51.588;7.248;2023-11-21T03:34:04;13.45;;;7.07;;
51358;SDS011;37448;51.588;7.248;2023-11-21T03:36:05;12.82;;;6.93;;
51358;SDS011;37448;51.588;7.248;2023-11-21T03:38:08;14.40;;;7.15;;
51358;SDS011;37448;51.588;7.248;2023-11-21T03:40:10;14.60;;;8.07;;
51358;SDS011;37448;51.588;7.248;2023-11-21T03:42:12;13.43;;;7.00;;
51358;SDS011;37448;51.588;7.248;2023-11-21T03:44:13;15.60;;;8.43;;
51358;SDS011;37448;51.588;7.248;2023-11-21T03:46:13;13.90;;;7.53;;
51358;SDS011;37448;51.588;7.248;2023-11-21T03:48:14;14.60;;;7.20;;
51358;SDS011;37448;51.588;7.248;2023-11-21T03:50:14;13.35;;;7.82;;
51358;SDS011;37448;51.588;7.248;2023-11-21T03:52:17;14.55;;;7.93;;
51358;SDS011;37448;51.588;7.248;2023-11-21T03:54:17;15.77;;;8.63;;
51358;SDS011;37448;51.588;7.248;2023-11-21T03:56:18;15.13;;;6.80;;
51358;SDS011;37448;51.588;7.248;2023-11-21T03:58:19;14.15;;;7.35;;
51358;SDS011;37448;51.588;7.248;2023-11-21T04:00:19;16.60;;;8.02;;
51358;SDS011;37448;51.588;7.248;2023-11-21T04:02:20;13.98;;;7.63;;
51358;SDS011;37448;51.588;7.248;2023-11-21T04:04:20;12.63;;;7.07;;
51358;SDS011;37448;51.588;7.248;2023-11-21T04:06:21;16.77;;;8.77;;
51358;SDS011;37448;51.588;7.248;2023-11-21T04:08:21;13.75;;;7.50;;
51358;SDS011;37448;51.588;7.248;2023-11-21T04:10:21;15.35;;;7.57;;
51358;SDS011;37448;51.588;7.248;2023-11-21T04:12:22;16.30;;;7.55;;
51358;SDS011;37448;51.588;7.248;2023-11-21T04:14:22;13.70;;;7.55;;
51358;SDS011;37448;51.588;7.248;2023-11-21T04:16:23;15.35;;;7.85;;
51358;SDS011;37448;51.588;7.248;2023-11-21T04:18:23;14.93;;;7.68;;
51358;SDS011;37448;51.588;7.248;2023-11-21T04:20:24;18.38;;;8.35;;
51358;SDS011;37448;51.588;7.248;2023-11-21T04:22:24;15.23;;;8.15;;
51358;SDS011;37448;51.588;7.248;2023-11-21T04:24:25;13.48;;;7.90;;
51358;SDS011;37448;51.588;7.248;2023-11-21T04:26:26;14.10;;;6.97;;
51358;SDS011;37448;51.588;7.248;2023-11-21T04:28:26;13.00;;;6.93;;
51358;SDS011;37448;51.588;7.248;2023-11-21T04:30:26;15.05;;;6.78;;
51358;SDS011;37448;51.588;7.248;2023-11-21T04:32:27;12.73;;;6.90;;
51358;SDS011;37448;51.588;7.248;2023-11-21T04:34:27;16.60;;;7.43;;
51358;SDS011;37448;51.588;7.248;2023-11-21T04:36:30;12.40;;;7.10;;
51358;SDS011;37448;51.588;7.248;2023-11-21T04:38:31;12.88;;;7.80;;
51358;SDS011;37448;51.588;7.248;2023-11-21T04:40:31;12.65;;;7.43;;
51358;SDS011;37448;51.588;7.248;2023-11-21T04:42:33;14.73;;;7.28;;
51358;SDS011;37448;51.588;7.248;2023-11-21T04:44:37;12.43;;;6.75;;
51358;SDS011;37448;51.588;7.248;2023-11-21T04:46:41;14.38;;;7.57;;
51358;SDS011;37448;51.588;7.248;2023-11-21T04:48:41;15.57;;;7.63;;
51358;SDS011;37448;51.588;7.248;2023-11-21T04:50:41;14.55;;;6.90;;
51358;SDS011;37448;51.588;7.248;2023-11-21T04:52:42;14.45;;;7.15;;
51358;SDS011;37448;51.588;7.248;2023-11-21T04:54:42;14.95;;;6.72;;
51358;SDS011;37448;51.588;7.248;2023-11-21T04:56:43;14.50;;;7.82;;
51358;SDS011;37448;51.588;7.248;2023-11-21T04:58:43;16.50;;;6.75;;
51358;SDS011;37448;51.588;7.248;2023-11-21T05:00:44;17.38;;;7.20;;
51358;SDS011;37448;51.588;7.248;2023-11-21T05:02:44;14.27;;;6.53;;
51358;SDS011;37448;51.588;7.248;2023-11-21T05:04:45;15.50;;;7.40;;
51358;SDS011;37448;51.588;7.248;2023-11-21T05:06:45;16.52;;;7.47;;
51358;SDS011;37448;51.588;7.248;2023-11-21T05:08:46;20.00;;;9.38;;
51358;SDS011;37448;51.588;7.248;2023-11-21T05:10:47;17.30;;;8.95;;
51358;SDS011;37448;51.588;7.248;2023-11-21T05:12:49;16.17;;;9.13;;
51358;SDS011;37448;51.588;7.248;2023-11-21T05:14:50;19.45;;;9.82;;
51358;SDS011;37448;51.588;7.248;2023-11-21T05:16:51;18.00;;;9.68;;
51358;SDS011;37448;51.588;7.248;2023-11-21T05:18:52;17.55;;;9.43;;
51358;SDS011;37448;51.588;7.248;2023-11-21T05:20:52;18.15;;;8.55;;
51358;SDS011;37448;51.588;7.248;2023-11-21T05:22:53;20.02;;;8.95;;
51358;SDS011;37448;51.588;7.248;2023-11-21T05:24:54;14.70;;;9.25;;
51358;SDS011;37448;51.588;7.248;2023-11-21T05:26:54;17.25;;;9.00;;
51358;SDS011;37448;51.588;7.248;2023-11-21T05:28:56;14.85;;;8.65;;
51358;SDS011;37448;51.588;7.248;2023-11-21T05:30:56;14.73;;;8.18;;
51358;SDS011;37448;51.588;7.248;2023-11-21T05:32:57;14.02;;;7.68;;
51358;SDS011;37448;51.588;7.248;2023-11-21T05:34:57;15.45;;;8.18;;
51358;SDS011;37448;51.588;7.248;2023-11-21T05:36:57;14.60;;;9.13;;
51358;SDS011;37448;51.588;7.248;2023-11-21T05:38:58;19.33;;;7.90;;
51358;SDS011;37448;51.588;7.248;2023-11-21T05:40:58;13.57;;;7.55;;
51358;SDS011;37448;51.588;7.248;2023-11-21T05:42:59;12.88;;;7.78;;
51358;SDS011;37448;51.588;7.248;2023-11-21T05:44:59;13.07;;;7.20;;
51358;SDS011;37448;51.588;7.248;2023-11-21T05:47:09;13.82;;;8.68;;
51358;SDS011;37448;51.588;7.248;2023-11-21T05:49:10;14.85;;;7.80;;
51358;SDS011;37448;51.588;7.248;2023-11-21T05:51:10;14.55;;;8.18;;
51358;SDS011;37448;51.588;7.248;2023-11-21T05:53:12;15.93;;;8.13;;
51358;SDS011;37448;51.588;7.248;2023-11-21T05:55:15;15.48;;;8.25;;
51358;SDS011;37448;51.588;7.248;2023-11-21T05:57:16;17.10;;;8.55;;
51358;SDS011;37448;51.588;7.248;2023-11-21T05:59:17;14.95;;;7.88;;
51358;SDS011;37448;51.588;7.248;2023-11-21T06:01:17;11.68;;;7.43;;
51358;SDS011;37448;51.588;7.248;2023-11-21T06:03:18;14.13;;;7.90;;
51358;SDS011;37448;51.588;7.248;2023-11-21T06:05:19;15.50;;;7.82;;
51358;SDS011;37448;51.588;7.248;2023-11-21T06:07:21;14.18;;;7.53;;
51358;SDS011;37448;51.588;7.248;2023-11-21T06:09:21;13.40;;;8.02;;
51358;SDS011;37448;51.588;7.248;2023-11-21T06:11:22;13.57;;;7.50;;
51358;SDS011;37448;51.588;7.248;2023-11-21T06:13:23;15.70;;;8.02;;
51358;SDS011;37448;51.588;7.248;2023-11-21T06:15:24;14.82;;;7.07;;
51358;SDS011;37448;51.588;7.248;2023-11-21T06:17:25;13.60;;;7.20;;
51358;SDS011;37448;51.588;7.248;2023-11-21T06:19:27;15.27;;;8.43;;
51358;SDS011;37448;51.588;7.248;2023-11-21T06:21:28;13.43;;;7.72;;
51358;SDS011;37448;51.588;7.248;2023-11-21T06:23:28;12.57;;;7.95;;
51358;SDS011;37448;51.588;7.248;2023-11-21T06:25:29;14.57;;;8.25;;
51358;SDS011;37448;51.588;7.248;2023-11-21T06:27:33;16.30;;;7.53;;
51358;SDS011;37448;51.588;7.248;2023-11-21T06:29:36;15.50;;;7.68;;
51358;SDS011;37448;51.588;7.248;2023-11-21T06:31:37;16.13;;;9.43;;
51358;SDS011;37448;51.588;7.248;2023-11-21T06:33:37;15.80;;;8.23;;
51358;SDS011;37448;51.588;7.248;2023-11-21T06:35:38;14.13;;;8.15;;
51358;SDS011;37448;51.588;7.248;2023-11-21T06:37:38;16.77;;;7.78;;
51358;SDS011;37448;51.588;7.248;2023-11-21T06:39:39;16.80;;;8.65;;
51358;SDS011;37448;51.588;7.248;2023-11-21T06:41:39;14.05;;;8.20;;
51358;SDS011;37448;51.588;7.248;2023-11-21T06:43:40;18.58;;;8.80;;
51358;SDS011;37448;51.588;7.248;2023-11-21T06:45:40;18.25;;;7.93;;
51358;SDS011;37448;51.588;7.248;2023-11-21T06:47:40;15.27;;;8.80;;
51358;SDS011;37448;51.588;7.248;2023-11-21T06:49:42;18.70;;;8.95;;
51358;SDS011;37448;51.588;7.248;2023-11-21T06:51:43;16.48;;;9.93;;
51358;SDS011;37448;51.588;7.248;2023-11-21T06:53:43;18.63;;;8.95;;
51358;SDS011;37448;51.588;7.248;2023-11-21T06:55:44;16.17;;;7.78;;
51358;SDS011;37448;51.588;7.248;2023-11-21T06:57:45;16.63;;;8.82;;
51358;SDS011;37448;51.588;7.248;2023-11-21T06:59:46;14.13;;;8.70;;
51358;SDS011;37448;51.588;7.248;2023-11-21T07:01:47;15.27;;;8.43;;
51358;SDS011;37448;51.588;7.248;2023-11-21T07:03:47;19.13;;;9.50;;
51358;SDS011;37448;51.588;7.248;2023-11-21T07:05:48;16.00;;;8.32;;
51358;SDS011;37448;51.588;7.248;2023-11-21T07:07:48;17.15;;;9.30;;
51358;SDS011;37448;51.588;7.248;2023-11-21T07:09:49;19.08;;;8.80;;
51358;SDS011;37448;51.588;7.248;2023-11-21T07:11:52;19.67;;;9.68;;
51358;SDS011;37448;51.588;7.248;2023-11-21T07:13:53;20.45;;;9.75;;
51358;SDS011;37448;51.588;7.248;2023-11-21T07:15:53;18.98;;;9.75;;
51358;SDS011;37448;51.588;7.248;2023-11-21T07:17:54;21.48;;;10.02;;
51358;SDS011;37448;51.588;7.248;2023-11-21T07:19:54;21.35;;;9.18;;
51358;SDS011;37448;51.588;7.248;2023-11-21T07:21:55;21.20;;;10.40;;
51358;SDS011;37448;51.588;7.248;2023-11-21T07:23:55;19.15;;;9.38;;
51358;SDS011;37448;51.588;7.248;2023-11-21T07:25:56;19.10;;;8.73;;
51358;SDS011;37448;51.588;7.248;2023-11-21T07:27:56;18.95;;;9.40;;
51358;SDS011;37448;51.588;7.248;2023-11-21T07:29:56;16.30;;;9.50;;
51358;SDS011;37448;51.588;7.248;2023-11-21T07:31:57;19.83;;;8.93;;
51358;SDS011;37448;51.588;7.248;2023-11-21T07:33:58;19.30;;;8.85;;
51358;SDS011;37448;51.588;7.248;2023-11-21T07:35:58;18.15;;;9.23;;
51358;SDS011;37448;51.588;7.248;2023-11-21T07:37:58;21.20;;;8.88;;
51358;SDS011;37448;51.588;7.248;2023-11-21T07:39:59;17.77;;;9.52;;
51358;SDS011;37448;51.588;7.248;2023-11-21T07:41:59;15.77;;;8.77;;
51358;SDS011;37448;51.588;7.248;2023-11-21T07:44:00;20.63;;;9.82;;
51358;SDS011;37448;51.588;7.248;2023-11-21T07:46:04;21.77;;;9.18;;
51358;SDS011;37448;51.588;7.248;2023-11-21T07:48:05;18.13;;;9.05;;
51358;SDS011;37448;51.588;7.248;2023-11-21T07:50:07;20.20;;;10.15;;
51358;SDS011;37448;51.588;7.248;2023-11-21T07:52:08;17.15;;;9.02;;
51358;SDS011;37448;51.588;7.248;2023-11-21T07:54:08;18.30;;;9.55;;
51358;SDS011;37448;51.588;7.248;2023-11-21T07:56:08;21.30;;;10.20;;
51358;SDS011;37448;51.588;7.248;2023-11-21T07:58:09;18.90;;;10.10;;
51358;SDS011;37448;51.588;7.248;2023-11-21T08:00:10;22.35;;;11.73;;
51358;SDS011;37448;51.588;7.248;2023-11-21T08:02:15;19.02;;;9.82;;
51358;SDS011;37448;51.588;7.248;2023-11-21T08:04:17;23.35;;;11.20;;
51358;SDS011;37448;51.588;7.248;2023-11-21T08:06:18;20.77;;;9.93;;
51358;SDS011;37448;51.588;7.248;2023-11-21T08:08:19;23.88;;;10.88;;
51358;SDS011;37448;51.588;7.248;2023-11-21T08:10:19;20.42;;;10.60;;
51358;SDS011;37448;51.588;7.248;2023-11-21T08:12:21;21.40;;;11.15;;
51358;SDS011;37448;51.588;7.248;2023-11-21T08:14:22;24.30;;;11.48;;
51358;SDS011;37448;51.588;7.248;2023-11-21T08:16:25;19.75;;;9.77;;
51358;SDS011;37448;51.588;7.248;2023-11-21T08:18:25;22.10;;;10.98;;
51358;SDS011;37448;51.588;7.248;2023-11-21T08:20:26;18.92;;;11.13;;
51358;SDS011;37448;51.588;7.248;2023-11-21T08:22:26;24.80;;;11.80;;
51358;SDS011;37448;51.588;7.248;2023-11-21T08:24:27;21.10;;;11.40;;
51358;SDS011;37448;51.588;7.248;2023-11-21T08:26:27;24.85;;;12.38;;
51358;SDS011;37448;51.588;7.248;2023-11-21T08:28:28;25.98;;;11.85;;
51358;SDS011;37448;51.588;7.248;2023-11-21T08:30:28;35.72;;;14.80;;
51358;SDS011;37448;51.588;7.248;2023-11-21T08:32:30;38.88;;;15.90;;
51358;SDS011;37448;51.588;7.248;2023-11-21T08:34:32;36.70;;;16.20;;
51358;SDS011;37448;51.588;7.248;2023-11-21T08:36:32;37.38;;;16.65;;
51358;SDS011;37448;51.588;7.248;2023-11-21T08:38:33;48.78;;;18.73;;
51358;SDS011;37448;51.588;7.248;2023-11-21T08:40:34;43.20;;;16.73;;
51358;SDS011;37448;51.588;7.248;2023-11-21T08:42:35;42.85;;;17.25;;
51358;SDS011;37448;51.588;7.248;2023-11-21T08:44:36;44.08;;;16.30;;
51358;SDS011;37448;51.588;7.248;2023-11-21T08:46:36;35.92;;;15.80;;
51358;SDS011;37448;51.588;7.248;2023-11-21T08:48:40;39.63;;;16.85;;
51358;SDS011;37448;51.588;7.248;2023-11-21T08:50:41;40.92;;;16.83;;
51358;SDS011;37448;51.588;7.248;2023-11-21T08:52:41;46.15;;;17.77;;
51358;SDS011;37448;51.588;7.248;2023-11-21T08:54:42;38.75;;;15.65;;
51358;SDS011;37448;51.588;7.248;2023-11-21T08:56:43;37.38;;;15.70;;
51358;SDS011;37448;51.588;7.248;2023-11-21T08:58:44;40.00;;;15.23;;
51358;SDS011;37448;51.588;7.248;2023-11-21T09:00:44;41.60;;;15.75;;
51358;SDS011;37448;51.588;7.248;2023-11-21T09:02:46;42.50;;;14.75;;
51358;SDS011;37448;51.588;7.248;2023-11-21T09:04:47;48.78;;;15.85;;
51358;SDS011;37448;51.588;7.248;2023-11-21T09:06:47;35.42;;;15.48;;
51358;SDS011;37448;51.588;7.248;2023-11-21T09:08:47;39.53;;;15.13;;
51358;SDS011;37448;51.588;7.248;2023-11-21T09:10:48;37.38;;;14.43;;
51358;SDS011;37448;51.588;7.248;2023-11-21T09:12:48;35.47;;;15.23;;
51358;SDS011;37448;51.588;7.248;2023-11-21T09:14:48;42.22;;;16.00;;
51358;SDS011;37448;51.588;7.248;2023-11-21T09:16:50;40.05;;;15.48;;
51358;SDS011;37448;51.588;7.248;2023-11-21T09:18:50;36.75;;;15.82;;
51358;SDS011;37448;51.588;7.248;2023-11-21T09:20:51;35.55;;;13.80;;
51358;SDS011;37448;51.588;7.248;2023-11-21T09:22:51;30.13;;;13.63;;
51358;SDS011;37448;51.588;7.248;2023-11-21T09:24:52;29.35;;;14.25;;
51358;SDS011;37448;51.588;7.248;2023-11-21T09:26:52;36.08;;;15.32;;
51358;SDS011;37448;51.588;7.248;2023-11-21T09:28:52;35.83;;;14.38;;
51358;SDS011;37448;51.588;7.248;2023-11-21T09:30:53;39.35;;;16.45;;
51358;SDS011;37448;51.588;7.248;2023-11-21T09:32:54;38.92;;;16.40;;
51358;SDS011;37448;51.588;7.248;2023-11-21T09:34:55;31.20;;;15.00;;
51358;SDS011;37448;51.588;7.248;2023-11-21T09:36:58;41.95;;;15.30;;
51358;SDS011;37448;51.588;7.248;2023-11-21T09:38:58;33.28;;;14.88;;
51358;SDS011;37448;51.588;7.248;2023-11-21T09:41:00;33.83;;;15.40;;
51358;SDS011;37448;51.588;7.248;2023-11-21T09:43:01;37.35;;;14.82;;
51358;SDS011;37448;51.588;7.248;2023-11-21T09:47:14;37.38;;;15.88;;
51358;SDS011;37448;51.588;7.248;2023-11-21T09:49:17;33.13;;;13.68;;
51358;SDS011;37448;51.588;7.248;2023-11-21T09:51:20;32.17;;;13.25;;
51358;SDS011;37448;51.588;7.248;2023-11-21T09:53:24;28.83;;;14.48;;
51358;SDS011;37448;51.588;7.248;2023-11-21T09:55:30;33.67;;;13.95;;
51358;SDS011;37448;51.588;7.248;2023-11-21T09:57:36;32.90;;;13.23;;
51358;SDS011;37448;51.588;7.248;2023-11-21T09:59:36;36.92;;;15.20;;
51358;SDS011;37448;51.588;7.248;2023-11-21T10:01:38;26.75;;;12.75;;
51358;SDS011;37448;51.588;7.248;2023-11-21T10:03:40;29.70;;;14.52;;
51358;SDS011;37448;51.588;7.248;2023-11-21T10:05:42;27.55;;;13.27;;
51358;SDS011;37448;51.588;7.248;2023-11-21T10:07:44;31.15;;;14.48;;
51358;SDS011;37448;51.588;7.248;2023-11-21T10:09:47;29.40;;;13.55;;
51358;SDS011;37448;51.588;7.248;2023-11-21T10:13:52;27.70;;;12.60;;
51358;SDS011;37448;51.588;7.248;2023-11-21T10:15:54;30.02;;;13.88;;
51358;SDS011;37448;51.588;7.248;2023-11-21T10:17:55;28.13;;;12.93;;
51358;SDS011;37448;51.588;7.248;2023-11-21T10:19:55;31.02;;;13.93;;
51358;SDS011;37448;51.588;7.248;2023-11-21T10:21:57;28.70;;;13.02;;
51358;SDS011;37448;51.588;7.248;2023-11-21T10:24:01;29.33;;;13.80;;
51358;SDS011;37448;51.588;7.248;2023-11-21T10:26:02;28.45;;;13.35;;
51358;SDS011;37448;51.588;7.248;2023-11-21T10:28:04;30.75;;;14.23;;
51358;SDS011;37448;51.588;7.248;2023-11-21T10:30:07;27.05;;;13.07;;
51358;SDS011;37448;51.588;7.248;2023-11-21T10:32:11;28.60;;;13.50;;
51358;SDS011;37448;51.588;7.248;2023-11-21T10:36:26;30.42;;;14.02;;
51358;SDS011;37448;51.588;7.248;2023-11-21T10:38:33;29.10;;;13.60;;
51358;SDS011;37448;51.588;7.248;2023-11-21T10:40:42;33.22;;;15.88;;
51358;SDS011;37448;51.588;7.248;2023-11-21T10:42:44;32.97;;;14.32;;
51358;SDS011;37448;51.588;7.248;2023-11-21T10:44:45;30.35;;;15.90;;
51358;SDS011;37448;51.588;7.248;2023-11-21T10:46:55;26.95;;;13.80;;
51358;SDS011;37448;51.588;7.248;2023-11-21T10:49:01;33.65;;;15.18;;
51358;SDS011;37448;51.588;7.248;2023-11-21T10:51:06;31.35;;;14.18;;
51358;SDS011;37448;51.588;7.248;2023-11-21T10:53:07;33.55;;;14.77;;
51358;SDS011;37448;51.588;7.248;2023-11-21T10:55:17;26.00;;;14.20;;
51358;SDS011;37448;51.588;7.248;2023-11-21T10:57:21;31.95;;;15.63;;
51358;SDS011;37448;51.588;7.248;2023-11-21T10:59:23;29.52;;;14.88;;
51358;SDS011;37448;51.588;7.248;2023-11-21T11:01:28;34.15;;;14.80;;
51358;SDS011;37448;51.588;7.248;2023-11-21T11:03:30;30.77;;;14.07;;
51358;SDS011;37448;51.588;7.248;2023-11-21T11:05:33;33.17;;;13.63;;
51358;SDS011;37448;51.588;7.248;2023-11-21T11:07:35;30.48;;;13.02;;
51358;SDS011;37448;51.588;7.248;2023-11-21T11:09:38;26.02;;;12.48;;
51358;SDS011;37448;51.588;7.248;2023-11-21T11:11:39;35.33;;;13.52;;
51358;SDS011;37448;51.588;7.248;2023-11-21T11:13:44;31.52;;;13.27;;
51358;SDS011;37448;51.588;7.248;2023-11-21T11:15:48;27.15;;;13.20;;
51358;SDS011;37448;51.588;7.248;2023-11-21T11:17:50;27.33;;;12.82;;
51358;SDS011;37448;51.588;7.248;2023-11-21T11:19:50;36.17;;;15.57;;
51358;SDS011;37448;51.588;7.248;2023-11-21T11:22:00;30.92;;;14.00;;
51358;SDS011;37448;51.588;7.248;2023-11-21T11:24:22;37.13;;;14.07;;
51358;SDS011;37448;51.588;7.248;2023-11-21T11:26:50;29.98;;;13.68;;
51358;SDS011;37448;51.588;7.248;2023-11-21T11:29:23;28.02;;;13.02;;
51358;SDS011;37448;51.588;7.248;2023-11-21T11:32:02;28.42;;;13.45;;
51358;SDS011;37448;51.588;7.248;2023-11-21T11:36:37;26.65;;;13.32;;
51358;SDS011;37448;51.588;7.248;2023-11-21T11:38:47;26.85;;;12.23;;
51358;SDS011;37448;51.588;7.248;2023-11-21T11:40:52;20.15;;;8.90;;
51358;SDS011;37448;51.588;7.248;2023-11-21T11:42:56;16.65;;;8.20;;
51358;SDS011;37448;51.588;7.248;2023-11-21T11:44:59;18.13;;;9.77;;
51358;SDS011;37448;51.588;7.248;2023-11-21T11:46:59;16.73;;;8.95;;
51358;SDS011;37448;51.588;7.248;2023-11-21T11:49:03;19.42;;;8.50;;
51358;SDS011;37448;51.588;7.248;2023-11-21T11:51:13;18.48;;;8.35;;
51358;SDS011;37448;51.588;7.248;2023-11-21T11:53:16;15.18;;;8.15;;
51358;SDS011;37448;51.588;7.248;2023-11-21T11:55:18;15.52;;;7.95;;
51358;SDS011;37448;51.588;7.248;2023-11-21T11:57:23;16.65;;;8.35;;
51358;SDS011;37448;51.588;7.248;2023-11-21T11:59:24;19.05;;;8.20;;
51358;SDS011;37448;51.588;7.248;2023-11-21T12:01:26;13.07;;;7.72;;
51358;SDS011;37448;51.588;7.248;2023-11-21T12:03:27;16.42;;;7.95;;
51358;SDS011;37448;51.588;7.248;2023-11-21T12:05:28;16.00;;;7.65;;
51358;SDS011;37448;51.588;7.248;2023-11-21T12:07:39;16.05;;;7.78;;